»·PEaware :: N2822D KRNM-KVCB

N2822D :: KRNM-KVCB

FLIGHT INFORMATION

Flight Status: Arrived
Operator: Privately registered:
United States
More flights under this callsign
Pilot: Keith B. (30325)
Aircraft: BEECH AIRCRAFT BARON
(BE58)
More flights by this aircraft type
Origin: KRNM Ramona
United States
Destination: KVCB Nut Tree
United States
More flights between these airports :: More routes between these airports
Route: KRNM BONDO OCN VPOCN VPSMP DANAH SLI DODGR JEFFY GMN AVE PXN RBLEW GIFME SAC KEDU KVCB
File this flight plan on PilotEdge
Remarks:
Altitude:
(Current/Filed)
10,500ft
Speed:
(Current/Filed)
280kts
Departed: 22-Nov-20 09:43 AM
Arrived: 22-Nov-20 12:19 PM
Distance/Time
Traveled:
404nm/2:36
Distance/Time
To Go:
Arrived

Flight Plot

Page will automatically refresh every two minutes.

Flight plan parsing failed; only flown route is shown


Map Options




Map Legend


Flown Route
Filed Route
Departure Airport
Arrival Airport
Navaid (VOR, NDB)
Fix

Horizontal Profiles

Position Reports

Time Latitude Longitude Heading Altitude Ground
Speed
22-Nov-20 09:38 33.037221 -116.910141 188 1395ft 0kts
22-Nov-20 09:39 33.037221 -116.910141 188 1395ft 0kts
22-Nov-20 09:40 33.037183 -116.910147 184 1395ft 5kts
22-Nov-20 09:41 33.037401 -116.907402 10 1396ft 0kts
22-Nov-20 09:42 33.037403 -116.907401 10 1396ft 0kts
22-Nov-20 09:43 33.040779 -116.925694 280 1694ft 125kts
22-Nov-20 09:44 33.049227 -116.969933 281 3037ft 146kts
22-Nov-20 09:44 33.060163 -117.008349 300 4027ft 154kts
22-Nov-20 09:46 33.092907 -117.058922 329 4519ft 185kts
22-Nov-20 09:47 33.122423 -117.106728 277 4483ft 195kts
22-Nov-20 09:47 33.137482 -117.157438 296 4480ft 195kts
22-Nov-20 09:49 33.164260 -117.225054 295 4852ft 186kts
22-Nov-20 09:49 33.182235 -117.270823 295 5402ft 180kts
22-Nov-20 09:51 33.206807 -117.333587 294 6141ft 178kts
22-Nov-20 09:51 33.224488 -117.378774 294 6473ft 187kts
22-Nov-20 09:52 33.241136 -117.439137 277 6467ft 197kts
22-Nov-20 09:53 33.271032 -117.488866 320 7089ft 175kts
22-Nov-20 09:54 33.304469 -117.526429 313 8199ft 158kts
22-Nov-20 09:55 33.337729 -117.565813 314 8483ft 184kts
22-Nov-20 09:56 33.375237 -117.610173 314 8475ft 193kts
22-Nov-20 09:57 33.419423 -117.647138 325 8748ft 188kts
22-Nov-20 09:58 33.460140 -117.681165 322 9601ft 172kts
22-Nov-20 09:59 33.496239 -117.715438 308 10443ft 161kts
22-Nov-20 10:00 33.530440 -117.756741 311 10503ft 183kts
22-Nov-20 10:01 33.567065 -117.799714 312 10497ft 184kts
22-Nov-20 10:02 33.603777 -117.842897 312 10491ft 185kts
22-Nov-20 10:03 33.640590 -117.886293 312 10487ft 185kts
22-Nov-20 10:04 33.677312 -117.929597 312 10480ft 185kts
22-Nov-20 10:05 33.713986 -117.972929 312 10485ft 185kts
22-Nov-20 10:06 33.750703 -118.016360 312 10483ft 185kts
22-Nov-20 10:07 33.787410 -118.059678 321 10477ft 187kts
22-Nov-20 10:08 33.835384 -118.085488 331 10472ft 189kts
22-Nov-20 10:09 33.880075 -118.111240 331 10458ft 189kts
22-Nov-20 10:10 33.923679 -118.136323 331 10453ft 189kts
22-Nov-20 10:11 33.968011 -118.161149 331 10450ft 189kts
22-Nov-20 10:12 34.016353 -118.188134 331 10448ft 195kts
22-Nov-20 10:13 34.066421 -118.216123 332 10441ft 200kts
22-Nov-20 10:14 34.116539 -118.244098 332 10499ft 197kts
22-Nov-20 10:15 34.166358 -118.271352 332 10495ft 199kts
22-Nov-20 10:16 34.216683 -118.299644 332 10492ft 199kts
22-Nov-20 10:17 34.266810 -118.327808 332 10490ft 199kts
22-Nov-20 10:18 34.317008 -118.356064 332 10498ft 199kts
22-Nov-20 10:19 34.367060 -118.384251 332 10505ft 198kts
22-Nov-20 10:20 34.417048 -118.412448 332 10509ft 199kts
22-Nov-20 10:21 34.467025 -118.440714 332 10513ft 198kts
22-Nov-20 10:22 34.517221 -118.468918 332 10519ft 199kts
22-Nov-20 10:23 34.567418 -118.497367 332 10503ft 200kts
22-Nov-20 10:24 34.617678 -118.525866 331 10508ft 199kts
22-Nov-20 10:25 34.667776 -118.554551 332 10528ft 198kts
22-Nov-20 10:26 34.717433 -118.582818 332 10560ft 198kts
22-Nov-20 10:27 34.758028 -118.623037 285 10560ft 190kts
22-Nov-20 10:28 34.766223 -118.685822 282 10627ft 189kts
22-Nov-20 10:29 34.779739 -118.748006 282 10630ft 190kts
22-Nov-20 10:30 34.793066 -118.810587 282 10629ft 191kts
22-Nov-20 10:31 34.809021 -118.872674 300 10599ft 195kts
22-Nov-20 10:32 34.847706 -118.919485 310 10574ft 196kts
22-Nov-20 10:33 34.884793 -118.968119 310 10580ft 195kts
22-Nov-20 10:34 34.921861 -119.016635 310 10567ft 195kts
22-Nov-20 10:35 34.949194 -119.052986 309 10626ft 193kts
22-Nov-20 10:36 34.986499 -119.101357 310 10558ft 196kts
22-Nov-20 10:37 35.023529 -119.150021 310 10554ft 195kts
22-Nov-20 10:38 35.060536 -119.198760 310 10547ft 195kts
22-Nov-20 10:39 35.097436 -119.247340 310 10543ft 195kts
22-Nov-20 10:40 35.133785 -119.295323 310 10597ft 193kts
22-Nov-20 10:41 35.170312 -119.343546 310 10589ft 194kts
22-Nov-20 10:42 35.207062 -119.392209 310 10589ft 194kts
22-Nov-20 10:43 35.243804 -119.440860 310 10582ft 195kts
22-Nov-20 10:44 35.280522 -119.489613 310 10577ft 195kts
22-Nov-20 10:45 35.317201 -119.538344 310 10571ft 195kts
22-Nov-20 10:46 35.353873 -119.587133 310 10566ft 195kts
22-Nov-20 10:47 35.390572 -119.636034 310 10571ft 194kts
22-Nov-20 10:48 35.426885 -119.684540 310 10622ft 193kts
22-Nov-20 10:49 35.463432 -119.733371 310 10618ft 195kts
22-Nov-20 10:50 35.500207 -119.782581 310 10613ft 195kts
22-Nov-20 10:51 35.536844 -119.831702 310 10599ft 195kts
22-Nov-20 10:52 35.573526 -119.880929 310 10592ft 195kts
22-Nov-20 10:53 35.610319 -119.930418 310 10591ft 195kts
22-Nov-20 10:54 35.647013 -119.979774 313 10574ft 196kts
22-Nov-20 10:55 35.694053 -120.014356 327 10566ft 197kts
22-Nov-20 10:56 35.741060 -120.049106 327 10569ft 197kts
22-Nov-20 10:57 35.787924 -120.083735 327 10566ft 197kts
22-Nov-20 10:58 35.834990 -120.118586 327 10564ft 197kts
22-Nov-20 10:59 35.881921 -120.153380 327 10565ft 197kts
22-Nov-20 11:00 35.928808 -120.188197 327 10562ft 197kts
22-Nov-20 11:01 35.975845 -120.223173 327 10561ft 197kts
22-Nov-20 11:02 36.022759 -120.258058 327 10561ft 197kts
22-Nov-20 11:03 36.069870 -120.292828 327 10546ft 197kts
22-Nov-20 11:04 36.116683 -120.327775 327 10608ft 194kts
22-Nov-20 11:05 36.163198 -120.362580 327 10611ft 196kts
22-Nov-20 11:06 36.210123 -120.397706 327 10609ft 197kts
22-Nov-20 11:07 36.256789 -120.432684 327 10602ft 197kts
22-Nov-20 11:08 36.303655 -120.467913 326 10605ft 197kts
22-Nov-20 11:09 36.350420 -120.503319 327 10602ft 197kts
22-Nov-20 11:10 36.397250 -120.538574 327 10597ft 196kts
22-Nov-20 11:11 36.444034 -120.573878 327 10594ft 196kts
22-Nov-20 11:12 36.490690 -120.609095 327 10585ft 197kts
22-Nov-20 11:13 36.537423 -120.644422 327 10583ft 197kts
22-Nov-20 11:14 36.584114 -120.679812 326 10612ft 196kts
22-Nov-20 11:15 36.630954 -120.715322 326 10591ft 197kts
22-Nov-20 11:16 36.677840 -120.750936 326 10585ft 198kts
22-Nov-20 11:17 36.725105 -120.786368 331 10581ft 198kts
22-Nov-20 11:19 36.775018 -120.815613 332 10575ft 198kts
22-Nov-20 11:20 36.824577 -120.845792 332 10570ft 198kts
22-Nov-20 11:21 36.874014 -120.875899 332 10566ft 198kts
22-Nov-20 11:22 36.923608 -120.906161 332 10560ft 198kts
22-Nov-20 11:23 36.972737 -120.936248 331 10558ft 198kts
22-Nov-20 11:24 37.022239 -120.967091 332 10551ft 198kts
22-Nov-20 11:25 37.071735 -120.997401 331 10550ft 198kts
22-Nov-20 11:26 37.120831 -121.027538 331 10614ft 195kts
22-Nov-20 11:27 37.170084 -121.057776 331 10610ft 198kts
22-Nov-20 11:28 37.219445 -121.088162 331 10609ft 198kts
22-Nov-20 11:29 37.268869 -121.118627 331 10615ft 198kts
22-Nov-20 11:30 37.318391 -121.149167 332 10610ft 198kts
22-Nov-20 11:31 37.367854 -121.179756 331 10608ft 198kts
22-Nov-20 11:32 37.417295 -121.210353 332 10601ft 198kts
22-Nov-20 11:32 37.458500 -121.235879 332 10596ft 198kts
22-Nov-20 11:34 37.516348 -121.271654 333 10588ft 198kts
22-Nov-20 11:34 37.557657 -121.296379 332 10441ft 201kts
22-Nov-20 11:36 37.617030 -121.333411 332 9638ft 204kts
22-Nov-20 11:36 37.659366 -121.359814 332 9036ft 203kts
22-Nov-20 11:37 37.709700 -121.391248 332 8480ft 195kts
22-Nov-20 11:38 37.756180 -121.420329 332 8440ft 182kts
22-Nov-20 11:39 37.800972 -121.448384 332 8435ft 177kts
22-Nov-20 11:41 37.852353 -121.480617 332 8439ft 176kts
22-Nov-20 11:41 37.888793 -121.503500 331 8440ft 176kts
22-Nov-20 11:42 37.936043 -121.518957 348 8439ft 178kts
22-Nov-20 11:43 37.984501 -121.531113 346 8433ft 177kts
22-Nov-20 11:44 38.032957 -121.543561 346 8432ft 178kts
22-Nov-20 11:45 38.081559 -121.556074 346 8425ft 178kts
22-Nov-20 11:46 38.129593 -121.568437 346 8500ft 176kts
22-Nov-20 11:47 38.177782 -121.580997 346 8496ft 178kts
22-Nov-20 11:48 38.208441 -121.587128 358 8498ft 179kts
22-Nov-20 11:49 38.208441 -121.587128 358 8498ft 179kts
22-Nov-20 11:50 38.208441 -121.587128 358 8498ft 179kts
22-Nov-20 11:51 38.208441 -121.587128 358 8498ft 179kts
22-Nov-20 11:52 38.208441 -121.587128 358 8498ft 179kts
22-Nov-20 11:53 38.208441 -121.587128 358 8498ft 179kts
22-Nov-20 11:54 38.208441 -121.587128 358 8498ft 179kts
22-Nov-20 11:55 38.208441 -121.587128 358 8498ft 179kts
22-Nov-20 11:56 38.208441 -121.587128 358 8498ft 179kts
22-Nov-20 11:57 38.208441 -121.587128 358 8498ft 179kts
22-Nov-20 11:58 38.208441 -121.587128 358 8498ft 179kts
22-Nov-20 11:59 38.208441 -121.587128 358 8498ft 179kts
22-Nov-20 12:00 38.208441 -121.587128 358 8498ft 179kts
22-Nov-20 12:01 38.208441 -121.587128 358 8498ft 179kts
22-Nov-20 12:02 38.208441 -121.587128 358 8498ft 179kts
22-Nov-20 12:03 38.219016 -121.585819 7 8500ft 181kts
22-Nov-20 12:04 38.269863 -121.576389 4 7981ft 188kts
22-Nov-20 12:05 38.322101 -121.569469 4 7215ft 189kts
22-Nov-20 12:06 38.374421 -121.561969 4 6407ft 189kts
22-Nov-20 12:07 38.426419 -121.554494 4 5580ft 188kts
22-Nov-20 12:08 38.463750 -121.591127 284 4569ft 186kts
22-Nov-20 12:09 38.479556 -121.648318 296 4270ft 165kts
22-Nov-20 12:10 38.499080 -121.700367 295 3957ft 160kts
22-Nov-20 12:11 38.518149 -121.751493 295 3637ft 159kts
22-Nov-20 12:12 38.519749 -121.804429 230 3317ft 161kts
22-Nov-20 12:13 38.490769 -121.846795 230 2955ft 154kts
22-Nov-20 12:14 38.461043 -121.884848 222 2356ft 151kts
22-Nov-20 12:15 38.431884 -121.915270 216 1423ft 103kts
22-Nov-20 12:16 38.409499 -121.934587 214 778ft 89kts
22-Nov-20 12:17 38.388787 -121.952191 215 244ft 91kts
22-Nov-20 12:18 38.375594 -121.962930 137 116ft 20kts
22-Nov-20 12:19 38.375139 -121.961595 33 113ft 0kts
22-Nov-20 12:20 38.375139 -121.961595 33 113ft 0kts
22-Nov-20 12:21 38.375139 -121.961595 33 113ft 0kts
22-Nov-20 12:22 38.375139 -121.961595 33 113ft 0kts
22-Nov-20 12:23 38.375139 -121.961595 33 113ft 0kts
22-Nov-20 12:24 38.375139 -121.961595 33 113ft 0kts
22-Nov-20 12:25 38.375139 -121.961595 33 113ft 0kts
22-Nov-20 12:26 38.375139 -121.961595 33 113ft 0kts
22-Nov-20 12:27 38.375139 -121.961595 33 113ft 0kts
22-Nov-20 12:28 38.375139 -121.961595 33 113ft 0kts
22-Nov-20 12:29 38.375139 -121.961595 33 113ft 0kts
22-Nov-20 12:30 38.375139 -121.961595 33 113ft 0kts
22-Nov-20 12:31 38.375139 -121.961595 33 113ft 0kts
22-Nov-20 12:32 38.375139 -121.961595 33 113ft 0kts

Navigation Log

Ident Type
Flight plan parsing failed, navigation log unavailable